createdAt,value
2019-05-13T00:01:38.819Z,6.70
2019-05-13T00:03:33.387Z,6.70
2019-05-13T00:05:25.048Z,6.70
2019-05-13T00:07:17.219Z,6.70
2019-05-13T00:09:09.237Z,6.70
2019-05-13T00:11:04.208Z,6.70
2019-05-13T00:12:55.935Z,6.70
2019-05-13T00:14:48.702Z,6.70
2019-05-13T00:16:41.103Z,6.60
2019-05-13T00:18:34.175Z,6.60
2019-05-13T00:20:26.368Z,6.60
2019-05-13T00:22:18.429Z,6.70
2019-05-13T00:24:10.531Z,6.70
2019-05-13T00:26:03.875Z,6.70
2019-05-13T00:27:56.424Z,6.70
2019-05-13T00:29:48.689Z,6.70
2019-05-13T00:31:40.809Z,6.60
2019-05-13T00:33:34.082Z,6.60
2019-05-13T00:35:26.734Z,6.70
2019-05-13T00:37:18.840Z,6.60
2019-05-13T00:39:11.023Z,6.70
2019-05-13T00:41:03.798Z,6.70
2019-05-13T00:42:56.480Z,6.70
2019-05-13T00:44:48.932Z,6.80
2019-05-13T00:46:40.880Z,6.70
2019-05-13T00:48:34.609Z,6.70
2019-05-13T00:50:26.992Z,6.70
2019-05-13T00:52:19.420Z,6.70
2019-05-13T00:54:13.284Z,6.70
2019-05-13T00:56:05.518Z,6.70
2019-05-13T00:57:57.709Z,6.70
2019-05-13T00:59:50.467Z,6.70
2019-05-13T01:01:44.114Z,6.80
2019-05-13T01:03:36.729Z,6.80
2019-05-13T01:05:29.064Z,6.80
2019-05-13T01:07:27.891Z,6.70
2019-05-13T01:09:15.323Z,6.70
2019-05-13T01:11:07.508Z,6.70
2019-05-13T01:12:59.489Z,6.70
2019-05-13T01:14:53.458Z,6.70
2019-05-13T01:16:46.151Z,6.60
2019-05-13T01:18:38.511Z,6.60
2019-05-13T01:20:30.806Z,6.70
2019-05-13T01:22:23.959Z,6.70
2019-05-13T01:24:16.208Z,6.70
2019-05-13T01:26:08.770Z,6.70
2019-05-13T01:28:01.314Z,6.70
2019-05-13T01:29:53.737Z,6.80
2019-05-13T01:31:46.205Z,6.80
2019-05-13T01:33:38.493Z,6.70
2019-05-13T01:35:30.990Z,6.60
2019-05-13T01:37:23.512Z,6.60
2019-05-13T01:39:16.979Z,6.70
2019-05-13T01:41:09.459Z,6.70
2019-05-13T01:43:03.545Z,6.70
2019-05-13T01:44:55.341Z,6.70
2019-05-13T01:46:48.300Z,6.70
2019-05-13T01:48:40.724Z,6.70
2019-05-13T01:50:34.207Z,6.70
2019-05-13T01:52:26.573Z,6.70
2019-05-13T01:54:18.549Z,6.70
2019-05-13T01:56:11.316Z,6.70
2019-05-13T01:58:04.356Z,6.60
2019-05-13T01:59:56.948Z,6.70
2019-05-13T02:01:49.172Z,6.70
2019-05-13T02:03:41.382Z,6.70
2019-05-13T02:05:33.892Z,6.70
2019-05-13T02:07:26.658Z,6.70
2019-05-13T02:09:19.024Z,6.70
2019-05-13T02:11:13.264Z,6.70
2019-05-13T02:13:05.391Z,6.70
2019-05-13T02:14:57.743Z,6.70
2019-05-13T02:16:49.662Z,6.80
2019-05-13T02:18:44.413Z,6.70
2019-05-13T02:20:36.874Z,6.80
2019-05-13T02:22:29.226Z,6.80
2019-05-13T02:24:23.534Z,6.70
2019-05-13T02:26:15.172Z,6.70
2019-05-13T02:28:10.554Z,6.70
2019-05-13T02:30:05.630Z,6.70
2019-05-13T02:31:56.598Z,6.60
2019-05-13T02:33:49.066Z,6.60
2019-05-13T02:35:43.343Z,6.70
2019-05-13T02:37:35.345Z,6.70
2019-05-13T02:39:27.806Z,6.60
2019-05-13T02:41:22.879Z,6.60
2019-05-13T02:43:13.863Z,6.50
2019-05-13T02:45:06.379Z,6.60
2019-05-13T02:46:58.679Z,6.60
2019-05-13T02:48:52.818Z,6.60
2019-05-13T02:50:45.049Z,6.60
2019-05-13T02:52:37.627Z,6.60
2019-05-13T02:54:33.703Z,6.60
2019-05-13T02:56:23.421Z,6.60
2019-05-13T02:58:15.609Z,6.60
2019-05-13T03:00:08.689Z,6.50
2019-05-13T03:02:03.671Z,6.50
2019-05-13T03:03:56.199Z,6.50
2019-05-13T03:05:47.989Z,6.50
2019-05-13T03:07:42.586Z,6.50
2019-05-13T03:09:34.687Z,6.60
2019-05-13T03:11:27.077Z,6.60
2019-05-13T03:13:19.138Z,6.50
2019-05-13T03:15:13.282Z,6.50
2019-05-13T03:17:13.117Z,6.60
2019-05-13T03:19:04.705Z,6.60
2019-05-13T03:20:56.595Z,6.70
2019-05-13T03:22:52.527Z,6.70
2019-05-13T03:24:44.357Z,6.70
2019-05-13T03:26:36.612Z,6.70
2019-05-13T03:28:29.038Z,6.80
2019-05-13T03:30:25.653Z,6.80
2019-05-13T03:32:17.098Z,6.70
2019-05-13T03:34:15.048Z,6.70
2019-05-13T03:36:06.581Z,6.80
2019-05-13T03:37:58.269Z,6.80
2019-05-13T03:39:52.434Z,6.80
2019-05-13T03:41:46.069Z,6.70
2019-05-13T03:43:42.973Z,6.70
2019-05-13T03:45:35.405Z,6.70
2019-05-13T03:47:32.860Z,6.80
2019-05-13T03:49:26.421Z,6.80
2019-05-13T03:51:22.166Z,6.70
2019-05-13T03:53:13.798Z,6.60
2019-05-13T03:55:07.029Z,6.50
2019-05-13T03:57:03.638Z,6.50
2019-05-13T03:58:54.511Z,6.50
2019-05-13T04:00:46.771Z,6.50
2019-05-13T04:02:38.968Z,6.60
2019-05-13T04:04:32.413Z,6.70
2019-05-13T04:06:24.976Z,6.80
2019-05-13T04:08:17.115Z,6.80
2019-05-13T04:10:09.051Z,6.80
2019-05-13T04:12:04.375Z,6.80
2019-05-13T04:13:57.665Z,6.90
2019-05-13T04:15:53.071Z,6.90
2019-05-13T04:17:44.241Z,6.80
2019-05-13T04:19:36.966Z,6.80
2019-05-13T04:21:28.965Z,6.80
2019-05-13T04:23:23.260Z,6.80
2019-05-13T04:25:16.102Z,6.80
2019-05-13T04:27:08.601Z,6.80
2019-05-13T04:29:03.194Z,6.80
2019-05-13T04:30:54.744Z,6.90
2019-05-13T04:32:48.301Z,6.90
2019-05-13T04:34:42.425Z,7.00
2019-05-13T04:36:34.548Z,7.00
2019-05-13T04:38:26.901Z,7.00
2019-05-13T04:40:22.620Z,6.90
2019-05-13T04:42:13.480Z,6.90
2019-05-13T04:44:05.823Z,7.00
2019-05-13T04:45:58.113Z,7.10
2019-05-13T04:47:52.930Z,7.10
2019-05-13T04:49:44.700Z,7.10
2019-05-13T04:51:37.167Z,7.20
2019-05-13T04:53:33.025Z,7.20
2019-05-13T04:55:23.500Z,7.30
2019-05-13T04:57:15.798Z,7.30
2019-05-13T04:59:08.038Z,7.40
2019-05-13T05:01:08.661Z,7.40
2019-05-13T05:03:04.062Z,7.40
2019-05-13T05:04:57.924Z,7.50
2019-05-13T05:06:54.539Z,7.50
2019-05-13T05:09:05.804Z,7.40
2019-05-13T05:11:15.949Z,7.50
2019-05-13T05:13:16.929Z,7.40
2019-05-13T05:15:16.885Z,7.40
2019-05-13T05:17:22.475Z,7.40
2019-05-13T05:19:24.870Z,7.30
2019-05-13T05:21:21.190Z,7.40
2019-05-13T05:23:31.964Z,7.40
2019-05-13T05:25:29.323Z,7.50
2019-05-13T05:27:23.208Z,7.50
2019-05-13T05:29:16.724Z,7.60
2019-05-13T05:31:16.641Z,7.60
2019-05-13T05:33:16.455Z,7.60
2019-05-13T05:35:27.074Z,7.60
2019-05-13T05:37:22.287Z,7.70
2019-05-13T05:39:27.945Z,7.70
2019-05-13T05:41:23.196Z,7.70
2019-05-13T05:43:17.173Z,7.70
2019-05-13T05:45:11.625Z,7.90
2019-05-13T05:47:04.559Z,8.00
2019-05-13T05:48:58.248Z,7.90
2019-05-13T05:50:52.525Z,8.00
2019-05-13T05:52:46.122Z,7.90
2019-05-13T05:54:39.192Z,7.90
2019-05-13T05:56:32.733Z,8.00
2019-05-13T05:58:27.538Z,8.00
2019-05-13T06:00:22.015Z,8.00
2019-05-13T06:02:14.721Z,8.00
2019-05-13T06:04:07.128Z,8.20
2019-05-13T06:06:01.714Z,8.20
2019-05-13T06:07:54.075Z,8.20
2019-05-13T06:09:46.033Z,8.30
2019-05-13T06:11:38.634Z,8.40
2019-05-13T06:13:31.651Z,8.40
2019-05-13T06:15:24.488Z,8.70
2019-05-13T06:17:17.112Z,8.90
2019-05-13T06:19:12.093Z,9.30
2019-05-13T06:21:04.187Z,9.40
2019-05-13T06:22:57.809Z,9.30
2019-05-13T06:24:52.018Z,9.20
2019-05-13T06:26:43.972Z,9.20
2019-05-13T06:28:36.275Z,9.40
2019-05-13T06:30:28.666Z,9.20
2019-05-13T06:32:25.293Z,9.30
2019-05-13T06:34:14.627Z,9.60
2019-05-13T06:36:06.747Z,9.50
2019-05-13T06:38:01.287Z,9.60
2019-05-13T06:39:53.310Z,9.80
2019-05-13T06:41:46.135Z,9.50
2019-05-13T06:43:38.083Z,9.30
2019-05-13T06:45:31.652Z,9.20
2019-05-13T06:47:23.753Z,9.10
2019-05-13T06:49:16.219Z,9.00
2019-05-13T06:51:08.943Z,9.10
2019-05-13T06:53:02.330Z,9.10
2019-05-13T06:54:55.105Z,9.20
2019-05-13T06:56:47.254Z,9.30
2019-05-13T06:58:41.488Z,9.30
2019-05-13T07:00:34.906Z,9.30
2019-05-13T07:02:27.787Z,9.50
2019-05-13T07:04:21.866Z,9.40
2019-05-13T07:06:14.106Z,9.40
2019-05-13T07:08:06.411Z,9.50
2019-05-13T07:09:58.669Z,9.60
2019-05-13T07:11:51.894Z,9.60
2019-05-13T07:13:44.279Z,9.80
2019-05-13T07:15:36.916Z,10.00
2019-05-13T07:17:29.222Z,10.20
2019-05-13T07:19:23.780Z,10.20
2019-05-13T07:21:15.785Z,10.20
2019-05-13T07:23:12.135Z,10.20
2019-05-13T07:25:05.330Z,10.30
2019-05-13T07:27:01.532Z,10.20
2019-05-13T07:28:53.009Z,10.30
2019-05-13T07:30:46.028Z,10.20
2019-05-13T07:32:38.534Z,10.10
2019-05-13T07:34:33.593Z,10.20
2019-05-13T07:36:25.633Z,10.10
2019-05-13T07:38:18.382Z,10.00
2019-05-13T07:40:11.617Z,10.00
2019-05-13T07:42:05.801Z,10.20
2019-05-13T07:43:58.738Z,10.40
2019-05-13T07:45:51.521Z,10.60
2019-05-13T07:47:44.192Z,10.60
2019-05-13T07:49:36.470Z,10.50
2019-05-13T07:51:28.613Z,10.40
2019-05-13T07:53:22.223Z,10.20
2019-05-13T07:55:14.261Z,10.10
2019-05-13T07:57:06.666Z,10.00
2019-05-13T07:58:58.520Z,9.80
2019-05-13T08:00:51.958Z,9.90
2019-05-13T08:02:44.785Z,10.00
2019-05-13T08:04:36.938Z,10.00
2019-05-13T08:06:29.247Z,9.90
2019-05-13T08:08:22.120Z,10.00
2019-05-13T08:10:14.844Z,10.00
2019-05-13T08:12:10.921Z,10.10
2019-05-13T08:14:01.927Z,10.10
2019-05-13T08:15:54.823Z,10.00
2019-05-13T08:17:48.067Z,9.90
2019-05-13T08:19:41.502Z,9.70
2019-05-13T08:21:33.573Z,9.70
2019-05-13T08:23:25.969Z,9.80
2019-05-13T08:25:17.953Z,9.90
2019-05-13T08:27:11.825Z,9.90
2019-05-13T08:29:05.998Z,10.00
2019-05-13T08:30:58.888Z,10.10
2019-05-13T08:32:52.329Z,10.10
2019-05-13T08:34:45.099Z,10.30
2019-05-13T08:36:39.496Z,10.40
2019-05-13T08:38:32.146Z,10.70
2019-05-13T08:40:24.480Z,10.90
2019-05-13T08:42:19.994Z,11.00
2019-05-13T08:44:12.399Z,11.00
2019-05-13T08:46:05.255Z,11.00
2019-05-13T08:47:57.665Z,11.20
2019-05-13T08:49:52.010Z,11.30
2019-05-13T08:51:43.961Z,11.40
2019-05-13T08:53:36.512Z,11.30
2019-05-13T08:55:28.752Z,11.20
2019-05-13T08:57:22.138Z,11.20
2019-05-13T08:59:14.434Z,11.20
2019-05-13T09:01:06.936Z,11.00
2019-05-13T09:03:01.514Z,11.00
2019-05-13T09:04:53.774Z,11.10
2019-05-13T09:06:46.096Z,11.20
2019-05-13T09:08:39.280Z,11.30
2019-05-13T09:10:31.916Z,11.20
2019-05-13T09:12:31.947Z,11.30
2019-05-13T09:14:18.529Z,11.40
2019-05-13T09:16:13.410Z,11.40
2019-05-13T09:18:05.801Z,11.20
2019-05-13T09:19:58.522Z,11.30
2019-05-13T09:21:52.624Z,11.50
2019-05-13T09:23:45.108Z,11.50
2019-05-13T09:25:37.633Z,11.70
2019-05-13T09:27:31.866Z,12.10
2019-05-13T09:29:24.411Z,11.80
2019-05-13T09:31:16.913Z,11.50
2019-05-13T09:33:11.455Z,11.60
2019-05-13T09:35:04.698Z,11.40
2019-05-13T09:36:56.514Z,11.40
2019-05-13T09:38:48.940Z,11.50
2019-05-13T09:40:42.279Z,11.30
2019-05-13T09:42:48.175Z,11.10
2019-05-13T09:44:28.888Z,10.90
2019-05-13T09:46:22.536Z,10.90
2019-05-13T09:48:15.360Z,11.00
2019-05-13T09:50:07.859Z,11.10
2019-05-13T09:52:01.665Z,11.20
2019-05-13T09:53:54.453Z,11.50
2019-05-13T09:55:46.753Z,11.20
2019-05-13T09:57:41.269Z,11.30
2019-05-13T09:59:33.484Z,11.60
2019-05-13T10:01:26.001Z,11.80
2019-05-13T10:03:18.729Z,11.70
2019-05-13T10:05:11.616Z,11.50
2019-05-13T10:07:04.429Z,11.70
2019-05-13T10:08:56.727Z,12.00
2019-05-13T10:10:49.081Z,12.10
2019-05-13T10:12:42.656Z,12.00
2019-05-13T10:14:36.157Z,12.00
2019-05-13T10:16:31.141Z,11.70
2019-05-13T10:18:22.544Z,11.40
2019-05-13T10:20:17.051Z,11.30
2019-05-13T10:22:11.795Z,11.30
2019-05-13T10:24:03.717Z,11.30
2019-05-13T10:25:57.997Z,11.40
2019-05-13T10:27:50.580Z,11.60
2019-05-13T10:29:43.098Z,11.50
2019-05-13T10:31:35.561Z,11.50
2019-05-13T10:33:27.846Z,11.50
2019-05-13T10:35:20.516Z,11.40
2019-05-13T10:37:12.523Z,11.40
2019-05-13T10:39:06.858Z,11.30
2019-05-13T10:40:59.053Z,11.30
2019-05-13T10:42:52.380Z,11.40
2019-05-13T10:44:44.679Z,11.60
2019-05-13T10:46:37.470Z,11.50
2019-05-13T10:48:29.625Z,11.30
2019-05-13T10:50:27.445Z,11.30
2019-05-13T10:52:15.929Z,11.30
2019-05-13T10:54:08.452Z,11.10
2019-05-13T10:56:03.309Z,11.30
2019-05-13T10:57:54.942Z,11.50
2019-05-13T10:59:47.255Z,11.60
2019-05-13T11:01:42.722Z,11.50
2019-05-13T11:03:33.747Z,11.50
2019-05-13T11:05:25.831Z,11.30
2019-05-13T11:07:18.186Z,11.50
2019-05-13T11:11:05.225Z,11.80
2019-05-13T11:12:57.597Z,11.70
2019-05-13T11:14:53.998Z,11.70
2019-05-13T11:16:45.389Z,11.70
2019-05-13T11:18:37.606Z,11.70
2019-05-13T11:20:32.448Z,12.00
2019-05-13T11:22:24.917Z,12.40
2019-05-13T11:24:17.576Z,13.20
2019-05-13T11:26:12.854Z,13.40
2019-05-13T11:28:04.192Z,13.70
2019-05-13T11:29:56.344Z,13.40
2019-05-13T11:31:52.052Z,13.30
2019-05-13T11:33:43.090Z,13.60
2019-05-13T11:35:35.531Z,13.60
2019-05-13T11:37:27.710Z,13.40
2019-05-13T11:39:21.644Z,13.30
2019-05-13T11:41:13.795Z,13.10
2019-05-13T11:43:06.318Z,12.70
2019-05-13T11:44:58.572Z,12.50
2019-05-13T11:46:52.997Z,12.60
2019-05-13T11:48:45.393Z,12.30
2019-05-13T11:50:37.887Z,12.00
2019-05-13T11:52:31.585Z,12.00
2019-05-13T11:54:24.499Z,12.10
2019-05-13T11:56:16.430Z,12.00
2019-05-13T11:58:08.867Z,12.20
2019-05-13T12:00:02.514Z,12.30
2019-05-13T12:01:55.912Z,12.30
2019-05-13T12:03:48.328Z,12.50
2019-05-13T12:05:42.133Z,12.50
2019-05-13T12:07:35.157Z,12.60
2019-05-13T12:09:27.592Z,12.70
2019-05-13T12:11:22.382Z,12.90
2019-05-13T12:13:13.901Z,13.10
2019-05-13T12:15:26.526Z,13.20
2019-05-13T12:17:02.264Z,13.60
2019-05-13T12:18:54.648Z,14.40
2019-05-13T12:20:46.893Z,15.20
2019-05-13T12:22:39.285Z,15.10
2019-05-13T12:24:33.416Z,15.30
2019-05-13T12:26:25.769Z,15.20
2019-05-13T12:28:18.505Z,14.50
2019-05-13T12:30:12.479Z,14.20
2019-05-13T12:32:05.047Z,13.90
2019-05-13T12:33:57.015Z,13.80
2019-05-13T12:35:52.566Z,14.80
2019-05-13T12:37:43.082Z,15.70
2019-05-13T12:39:35.550Z,17.00
2019-05-13T12:41:27.599Z,18.00
2019-05-13T12:43:23.015Z,18.40
2019-05-13T12:45:14.522Z,17.40
2019-05-13T12:47:07.583Z,16.50
2019-05-13T12:48:59.796Z,15.10
2019-05-13T12:50:53.964Z,14.60
2019-05-13T12:52:47.939Z,14.50
2019-05-13T12:54:43.676Z,14.50
2019-05-13T12:56:33.990Z,14.10
2019-05-13T12:58:26.645Z,14.00
2019-05-13T13:00:23.324Z,14.70
2019-05-13T13:02:13.611Z,15.90
2019-05-13T13:04:05.982Z,16.50
2019-05-13T13:08:24.006Z,19.00
2019-05-13T13:09:59.871Z,17.90
2019-05-13T13:11:54.399Z,16.50
2019-05-13T13:13:58.911Z,15.40
2019-05-13T13:15:43.469Z,15.10
2019-05-13T13:17:34.480Z,14.50
2019-05-13T13:19:28.178Z,14.20
2019-05-13T13:21:24.321Z,13.70
2019-05-13T13:23:14.592Z,13.60
2019-05-13T13:25:07.793Z,13.70
2019-05-13T13:27:00.050Z,13.50
2019-05-13T13:28:55.552Z,13.40
2019-05-13T13:30:46.490Z,13.60
2019-05-13T13:32:39.112Z,14.20
2019-05-13T13:34:33.772Z,15.30
2019-05-13T13:36:26.296Z,15.70
2019-05-13T13:38:24.393Z,15.40
2019-05-13T13:40:12.848Z,14.60
2019-05-13T13:42:06.117Z,14.20
2019-05-13T13:44:04.658Z,13.70
2019-05-13T13:46:07.570Z,13.60
2019-05-13T13:47:57.584Z,13.50
2019-05-13T13:49:43.959Z,13.40
2019-05-13T13:51:35.957Z,13.40
2019-05-13T13:53:28.122Z,14.20
2019-05-13T13:55:25.990Z,15.40
2019-05-13T13:57:14.815Z,17.20
2019-05-13T13:59:07.423Z,18.50
2019-05-13T14:01:07.141Z,17.40
2019-05-13T14:02:54.481Z,16.10
2019-05-13T14:04:47.254Z,17.20
2019-05-13T14:06:28.552Z,11.70
2019-05-13T14:07:14.038Z,18.20
2019-05-13T14:08:35.075Z,18.90
2019-05-13T14:10:27.669Z,19.50
2019-05-13T14:12:21.842Z,20.30
2019-05-13T14:14:14.226Z,20.70
2019-05-13T14:16:20.635Z,21.20
2019-05-13T14:18:00.133Z,20.20
2019-05-13T14:19:52.499Z,18.80
2019-05-13T14:21:45.257Z,17.20
2019-05-13T14:23:38.098Z,16.00
2019-05-13T14:25:32.469Z,15.60
2019-05-13T14:27:24.645Z,15.60
2019-05-13T14:29:17.166Z,15.10
2019-05-13T14:31:09.082Z,14.80
2019-05-13T14:33:02.320Z,14.30
2019-05-13T14:34:54.968Z,14.10
2019-05-13T14:36:47.778Z,15.20
2019-05-13T14:38:40.120Z,16.70
2019-05-13T14:40:33.213Z,18.00
2019-05-13T14:42:25.424Z,18.90
2019-05-13T14:44:18.266Z,18.90
2019-05-13T14:46:12.648Z,18.90
2019-05-13T14:48:04.273Z,17.80
2019-05-13T14:49:56.316Z,16.40
2019-05-13T14:51:48.708Z,16.00
2019-05-13T14:53:41.817Z,15.80
2019-05-13T14:55:34.364Z,15.40
2019-05-13T14:57:27.260Z,15.80
2019-05-13T14:59:22.101Z,16.50
2019-05-13T15:01:22.286Z,16.40
2019-05-13T15:03:07.969Z,16.30
2019-05-13T15:05:02.445Z,16.40
2019-05-13T15:06:53.773Z,16.20
2019-05-13T15:08:46.362Z,15.90
2019-05-13T15:10:38.972Z,16.00
2019-05-13T15:12:32.295Z,16.10
2019-05-13T15:14:26.157Z,15.80
2019-05-13T15:16:18.649Z,15.60
2019-05-13T15:18:11.324Z,14.80
2019-05-13T15:20:05.323Z,14.40
2019-05-13T15:21:57.756Z,14.10
2019-05-13T15:23:51.840Z,13.80
2019-05-13T15:25:44.687Z,13.40
2019-05-13T15:27:36.809Z,13.60
2019-05-13T15:29:31.142Z,14.10
2019-05-13T15:31:22.628Z,15.30
2019-05-13T15:33:15.156Z,15.70
2019-05-13T15:35:10.053Z,16.50
2019-05-13T15:37:02.120Z,16.70
2019-05-13T15:38:54.160Z,18.00
2019-05-13T15:40:46.793Z,18.30
2019-05-13T15:42:38.949Z,17.10
2019-05-13T15:44:32.822Z,16.80
2019-05-13T15:46:25.269Z,17.50
2019-05-13T15:48:17.615Z,17.10
2019-05-13T15:50:12.432Z,17.00
2019-05-13T15:52:04.582Z,16.90
2019-05-13T15:53:57.342Z,16.30
2019-05-13T15:55:51.656Z,16.10
2019-05-13T15:57:44.173Z,15.40
2019-05-13T15:59:36.257Z,14.60
2019-05-13T16:01:28.132Z,13.90
2019-05-13T16:03:20.300Z,13.40
2019-05-13T16:05:13.787Z,13.20
2019-05-13T16:07:06.449Z,13.30
2019-05-13T16:08:58.668Z,13.00
2019-05-13T16:10:53.456Z,12.90
2019-05-13T16:12:45.334Z,12.80
2019-05-13T16:14:37.762Z,12.70
2019-05-13T16:16:36.418Z,12.60
2019-05-13T16:18:31.431Z,12.60
2019-05-13T16:20:22.803Z,12.70
2019-05-13T16:22:15.070Z,12.70
2019-05-13T16:24:07.092Z,12.90
2019-05-13T16:26:01.617Z,12.90
2019-05-13T16:27:53.070Z,12.90
2019-05-13T16:29:45.646Z,12.90
2019-05-13T16:31:37.621Z,13.10
2019-05-13T16:33:31.391Z,13.10
2019-05-13T16:35:24.083Z,13.10
2019-05-13T16:37:16.884Z,13.20
2019-05-13T16:39:12.102Z,13.20
2019-05-13T16:41:03.813Z,13.30
2019-05-13T16:42:56.597Z,13.20
2019-05-13T16:44:51.407Z,13.20
2019-05-13T16:46:42.781Z,13.30
2019-05-13T16:48:35.200Z,13.30
2019-05-13T16:50:27.116Z,13.30
2019-05-13T16:52:21.885Z,13.40
2019-05-13T16:54:14.051Z,13.40
2019-05-13T16:56:06.450Z,13.40
2019-05-13T16:57:58.736Z,13.40
2019-05-13T16:59:51.764Z,13.40
2019-05-13T17:01:44.426Z,13.50
2019-05-13T17:03:37.291Z,13.40
2019-05-13T17:05:29.326Z,13.40
2019-05-13T17:07:21.706Z,13.30
2019-05-13T17:09:13.651Z,13.20
2019-05-13T17:11:06.096Z,13.10
2019-05-13T17:12:58.626Z,13.00
2019-05-13T17:14:52.300Z,13.00
2019-05-13T17:16:44.843Z,12.90
2019-05-13T17:18:36.876Z,12.90
2019-05-13T17:20:28.752Z,12.90
2019-05-13T17:22:20.980Z,12.80
2019-05-13T17:24:12.932Z,12.90
2019-05-13T17:26:05.519Z,12.90
2019-05-13T17:27:57.944Z,12.80
2019-05-13T17:29:51.606Z,12.80
2019-05-13T17:31:45.119Z,12.80
2019-05-13T17:33:37.222Z,12.80
2019-05-13T17:35:31.182Z,12.60
2019-05-13T17:37:22.864Z,12.50
2019-05-13T17:39:15.232Z,12.40
2019-05-13T17:41:07.797Z,12.40
2019-05-13T17:43:01.317Z,12.40
2019-05-13T17:44:53.619Z,12.30
2019-05-13T17:46:45.569Z,12.20
2019-05-13T17:48:37.882Z,12.20
2019-05-13T17:50:31.489Z,12.10
2019-05-13T17:52:23.839Z,12.00
2019-05-13T17:54:16.275Z,11.90
2019-05-13T17:56:11.075Z,11.80
2019-05-13T17:58:02.411Z,11.80
2019-05-13T17:59:54.569Z,11.70
2019-05-13T18:01:46.827Z,11.70
2019-05-13T18:03:41.104Z,11.70
2019-05-13T18:05:32.868Z,11.60
2019-05-13T18:07:25.256Z,11.60
2019-05-13T18:09:17.748Z,11.50
2019-05-13T18:11:11.398Z,11.50
2019-05-13T18:13:04.102Z,11.40
2019-05-13T18:14:57.797Z,11.30
2019-05-13T18:16:49.748Z,11.30
2019-05-13T18:18:47.049Z,11.20
2019-05-13T18:20:37.379Z,11.20
2019-05-13T18:22:31.206Z,11.10
2019-05-13T18:24:24.038Z,11.10
2019-05-13T18:26:17.029Z,11.10
2019-05-13T18:28:24.868Z,11.10
2019-05-13T18:30:05.368Z,11.20
2019-05-13T18:31:58.037Z,11.30
2019-05-13T18:33:51.142Z,11.20
2019-05-13T18:35:44.680Z,11.20
2019-05-13T18:37:37.943Z,11.20
2019-05-13T18:39:32.325Z,11.10
2019-05-13T18:41:25.808Z,11.10
2019-05-13T18:43:21.372Z,11.10
2019-05-13T18:45:14.538Z,11.00
2019-05-13T18:47:07.777Z,11.00
2019-05-13T18:49:02.170Z,11.00
2019-05-13T18:50:56.166Z,11.00
2019-05-13T18:52:52.317Z,10.90
2019-05-13T18:54:44.281Z,10.90
2019-05-13T18:56:37.467Z,10.90
2019-05-13T18:58:31.667Z,10.90
2019-05-13T19:00:25.726Z,10.90
2019-05-13T19:02:21.284Z,10.90
2019-05-13T19:04:14.353Z,10.90
2019-05-13T19:06:08.191Z,10.90
2019-05-13T19:08:02.000Z,10.80
2019-05-13T19:09:55.691Z,10.80
2019-05-13T19:11:51.174Z,10.80
2019-05-13T19:13:43.718Z,10.70
2019-05-13T19:15:37.240Z,10.60
2019-05-13T19:17:32.267Z,10.50
2019-05-13T19:19:25.988Z,10.40
2019-05-13T19:21:21.745Z,10.40
2019-05-13T19:23:14.602Z,10.30
2019-05-13T19:25:07.787Z,10.40
2019-05-13T19:27:01.830Z,10.30
2019-05-13T19:28:57.031Z,10.30
2019-05-13T19:30:51.611Z,10.30
2019-05-13T19:32:46.466Z,10.30
2019-05-13T19:34:42.349Z,10.20
2019-05-13T19:36:35.285Z,10.20
2019-05-13T19:38:29.116Z,10.10
2019-05-13T19:40:22.832Z,10.10
2019-05-13T19:42:16.584Z,10.00
2019-05-13T19:44:10.434Z,10.00
2019-05-13T19:46:03.903Z,9.90
2019-05-13T19:47:57.576Z,9.80
2019-05-13T19:49:52.303Z,9.80
2019-05-13T19:51:45.615Z,9.70
2019-05-13T19:53:41.042Z,9.70
2019-05-13T19:55:34.077Z,9.70
2019-05-13T19:57:27.751Z,9.60
2019-05-13T19:59:21.593Z,9.60
2019-05-13T20:01:15.376Z,9.60
2019-05-13T20:03:11.661Z,9.50
2019-05-13T20:05:06.059Z,9.40
2019-05-13T20:06:59.337Z,9.40
2019-05-13T20:08:53.091Z,9.40
2019-05-13T20:10:47.832Z,9.50
2019-05-13T20:12:42.097Z,9.40
2019-05-13T20:14:36.355Z,9.40
2019-05-13T20:16:32.006Z,9.40
2019-05-13T20:18:26.550Z,9.40
2019-05-13T20:20:21.297Z,9.30
2019-05-13T20:22:15.321Z,9.30
2019-05-13T20:24:08.899Z,9.30
2019-05-13T20:26:02.431Z,9.30
2019-05-13T20:27:56.163Z,9.40
2019-05-13T20:29:51.026Z,9.40
2019-05-13T20:31:43.316Z,9.40
2019-05-13T20:33:39.833Z,9.30
2019-05-13T20:35:31.309Z,9.40
2019-05-13T20:37:24.328Z,9.40
2019-05-13T20:39:16.931Z,9.30
2019-05-13T20:41:11.548Z,9.20
2019-05-13T20:43:03.076Z,9.30
2019-05-13T20:44:55.718Z,9.20
2019-05-13T20:46:48.569Z,9.10
2019-05-13T20:48:41.243Z,9.10
2019-05-13T20:50:33.771Z,9.20
2019-05-13T20:52:26.067Z,9.40
2019-05-13T20:54:18.658Z,9.50
2019-05-13T20:56:10.697Z,9.50
2019-05-13T20:58:03.046Z,9.60
2019-05-13T20:59:55.297Z,9.60
2019-05-13T21:01:47.600Z,9.60
2019-05-13T21:03:41.816Z,9.60
2019-05-13T21:05:34.022Z,9.50
2019-05-13T21:07:27.529Z,9.50
2019-05-13T21:09:20.003Z,9.50
2019-05-13T21:11:12.118Z,9.50
2019-05-13T21:13:04.578Z,9.40
2019-05-13T21:14:56.525Z,9.40
2019-05-13T21:16:49.054Z,9.50
2019-05-13T21:18:42.109Z,9.50
2019-05-13T21:20:34.838Z,9.50
2019-05-13T21:22:27.208Z,9.50
2019-05-13T21:24:21.354Z,9.70
2019-05-13T21:26:15.638Z,9.60
2019-05-13T21:28:07.706Z,9.50
2019-05-13T21:30:01.252Z,9.60
2019-05-13T21:31:54.519Z,9.60
2019-05-13T21:33:46.886Z,9.70
2019-05-13T21:35:38.925Z,9.70
2019-05-13T21:37:30.770Z,9.80
2019-05-13T21:39:23.080Z,9.70
2019-05-13T21:41:15.054Z,9.60
2019-05-13T21:43:07.497Z,9.50
2019-05-13T21:45:01.632Z,9.50
2019-05-13T21:46:53.976Z,9.60
2019-05-13T21:48:45.979Z,9.60
2019-05-13T21:50:38.365Z,9.60
2019-05-13T21:52:32.347Z,9.50
2019-05-13T21:54:25.142Z,9.40
2019-05-13T21:56:17.609Z,9.40
2019-05-13T21:58:11.414Z,9.30
2019-05-13T22:00:05.461Z,9.40
2019-05-13T22:02:01.593Z,9.30
2019-05-13T22:03:53.923Z,9.40
2019-05-13T22:05:46.327Z,9.30
2019-05-13T22:07:38.424Z,9.20
2019-05-13T22:09:32.038Z,9.20
2019-05-13T22:11:24.537Z,9.30
2019-05-13T22:13:16.755Z,9.20
2019-05-13T22:15:09.973Z,9.10
2019-05-13T22:17:02.030Z,9.10
2019-05-13T22:18:54.235Z,9.00
2019-05-13T22:20:50.604Z,9.00
2019-05-13T22:22:41.567Z,9.10
2019-05-13T22:24:34.424Z,8.90
2019-05-13T22:26:27.710Z,8.90
2019-05-13T22:28:21.946Z,8.80
2019-05-13T22:30:14.728Z,8.80
2019-05-13T22:32:07.051Z,8.70
2019-05-13T22:34:01.051Z,8.60
2019-05-13T22:35:53.094Z,8.70
2019-05-13T22:37:45.250Z,8.60
2019-05-13T22:39:37.385Z,8.60
2019-05-13T22:41:31.285Z,8.40
2019-05-13T22:43:23.588Z,8.40
2019-05-13T22:45:16.105Z,8.40
2019-05-13T22:47:13.098Z,8.40
2019-05-13T22:49:02.672Z,8.30
2019-05-13T22:50:55.291Z,8.30
2019-05-13T22:52:47.347Z,8.20
2019-05-13T22:54:41.243Z,8.20
2019-05-13T22:56:33.638Z,8.20
2019-05-13T22:58:26.071Z,8.20
2019-05-13T23:00:17.996Z,8.10
2019-05-13T23:02:12.382Z,8.10
2019-05-13T23:04:04.694Z,8.10
2019-05-13T23:05:56.727Z,8.10
2019-05-13T23:07:48.652Z,8.00
2019-05-13T23:09:41.722Z,8.00
2019-05-13T23:11:34.655Z,7.90
2019-05-13T23:13:26.732Z,7.80
2019-05-13T23:15:21.156Z,7.80
2019-05-13T23:17:13.356Z,7.80
2019-05-13T23:19:05.426Z,7.80
2019-05-13T23:20:57.940Z,7.80
2019-05-13T23:22:51.954Z,7.70
2019-05-13T23:24:44.019Z,7.60
2019-05-13T23:26:35.836Z,7.50
2019-05-13T23:28:28.591Z,7.60
2019-05-13T23:30:20.810Z,7.50
2019-05-13T23:32:13.136Z,7.40
2019-05-13T23:34:05.405Z,7.40
2019-05-13T23:35:57.701Z,7.50
2019-05-13T23:37:51.013Z,7.50
2019-05-13T23:39:44.219Z,7.30
2019-05-13T23:41:36.347Z,7.30
2019-05-13T23:43:30.928Z,7.30
2019-05-13T23:45:22.879Z,7.20
2019-05-13T23:47:15.356Z,7.20
2019-05-13T23:49:07.332Z,7.10
2019-05-13T23:51:01.334Z,7.10
2019-05-13T23:52:54.842Z,7.00
2019-05-13T23:54:47.389Z,6.90
2019-05-13T23:56:41.663Z,6.90
2019-05-13T23:58:34.493Z,6.90
